createdAt,value
2022-10-29T00:01:35.809Z,78.70
2022-10-29T00:04:04.227Z,78.83
2022-10-29T00:06:33.515Z,79.05
2022-10-29T00:09:06.054Z,79.00
2022-10-29T00:11:38.415Z,79.16
2022-10-29T00:14:06.632Z,79.22
2022-10-29T00:16:37.650Z,79.53
2022-10-29T00:19:06.616Z,79.86
2022-10-29T00:21:35.716Z,79.98
2022-10-29T00:24:08.042Z,79.86
2022-10-29T00:26:37.137Z,80.26
2022-10-29T00:29:05.414Z,80.50
2022-10-29T00:31:33.832Z,80.50
2022-10-29T00:34:03.185Z,80.28
2022-10-29T00:36:34.262Z,80.46
2022-10-29T00:39:06.112Z,80.39
2022-10-29T00:41:39.725Z,80.44
2022-10-29T00:44:30.291Z,80.55
2022-10-29T00:47:03.757Z,80.51
2022-10-29T00:49:33.640Z,80.64
2022-10-29T00:52:03.637Z,80.82
2022-10-29T00:54:32.439Z,80.99
2022-10-29T00:57:07.287Z,81.09
2022-10-29T00:59:36.514Z,81.38
2022-10-29T01:02:06.324Z,81.71
2022-10-29T01:04:35.396Z,81.91
2022-10-29T01:07:06.296Z,82.11
2022-10-29T01:09:37.292Z,82.29
2022-10-29T01:12:30.647Z,82.56
2022-10-29T01:15:14.542Z,82.79
2022-10-29T01:17:57.221Z,83.01
2022-10-29T01:20:52.818Z,83.10
2022-10-29T01:23:42.265Z,83.34
2022-10-29T01:26:29.035Z,83.61
2022-10-29T01:29:12.101Z,83.80
2022-10-29T01:31:47.696Z,83.97
2022-10-29T01:34:20.537Z,84.09
2022-10-29T01:36:55.405Z,84.21
2022-10-29T01:39:29.557Z,84.33
2022-10-29T01:42:06.904Z,84.61
2022-10-29T01:44:38.054Z,84.96
2022-10-29T01:47:21.489Z,85.23
2022-10-29T01:49:54.044Z,85.36
2022-10-29T01:52:24.848Z,85.53
2022-10-29T01:54:53.693Z,85.62
2022-10-29T01:57:34.188Z,85.77
2022-10-29T02:00:14.801Z,85.96
2022-10-29T02:03:07.037Z,86.06
2022-10-29T02:05:38.578Z,86.05
2022-10-29T02:08:23.529Z,86.16
2022-10-29T02:10:55.205Z,86.28
2022-10-29T02:13:30.814Z,86.29
2022-10-29T02:15:59.846Z,86.41
2022-10-29T02:18:30.073Z,86.64
2022-10-29T02:20:58.311Z,86.61
2022-10-29T02:23:29.311Z,86.71
2022-10-29T02:25:57.378Z,86.77
2022-10-29T02:28:28.313Z,86.85
2022-10-29T02:31:03.189Z,86.99
2022-10-29T02:33:35.006Z,86.93
2022-10-29T02:36:09.296Z,86.95
2022-10-29T02:38:39.373Z,86.81
2022-10-29T02:41:08.170Z,86.66
2022-10-29T02:43:38.166Z,86.66
2022-10-29T02:46:14.441Z,86.68
2022-10-29T02:48:43.851Z,86.65
2022-10-29T02:51:15.500Z,86.50
2022-10-29T02:53:53.729Z,86.36
2022-10-29T02:56:25.120Z,86.27
2022-10-29T02:59:00.738Z,86.13
2022-10-29T03:01:30.113Z,86.00
2022-10-29T03:04:03.416Z,85.97
2022-10-29T03:06:34.279Z,85.97
2022-10-29T03:09:06.648Z,86.04
2022-10-29T03:11:36.460Z,86.05
2022-10-29T03:14:08.550Z,86.22
2022-10-29T03:16:40.188Z,86.52
2022-10-29T03:19:09.806Z,86.78
2022-10-29T03:21:38.707Z,86.88
2022-10-29T03:24:08.242Z,87.13
2022-10-29T03:26:36.248Z,87.28
2022-10-29T03:29:07.055Z,87.34
2022-10-29T03:31:35.750Z,87.54
2022-10-29T03:34:12.849Z,87.76
2022-10-29T03:36:46.571Z,87.96
2022-10-29T03:39:17.072Z,88.03
2022-10-29T03:41:49.986Z,88.18
2022-10-29T03:44:26.848Z,88.30
2022-10-29T03:46:55.287Z,88.34
2022-10-29T03:49:23.380Z,88.55
2022-10-29T03:51:53.356Z,88.56
2022-10-29T03:54:23.290Z,88.57
2022-10-29T03:56:53.890Z,88.73
2022-10-29T03:59:22.051Z,88.79
2022-10-29T04:01:52.349Z,88.85
2022-10-29T04:04:21.431Z,88.90
2022-10-29T04:06:52.240Z,88.95
2022-10-29T04:09:27.033Z,89.09
2022-10-29T04:11:56.516Z,89.18
2022-10-29T04:14:28.131Z,89.28
2022-10-29T04:16:56.698Z,89.38
2022-10-29T04:19:24.966Z,89.43
2022-10-29T04:30:35.268Z,89.52
2022-10-29T04:33:03.805Z,89.57
2022-10-29T04:35:32.170Z,89.45
2022-10-29T04:38:00.346Z,89.58
2022-10-29T04:40:29.908Z,89.76
2022-10-29T04:42:58.511Z,89.92
2022-10-29T04:45:27.465Z,89.93
2022-10-29T04:48:01.762Z,90.03
2022-10-29T04:50:30.091Z,89.98
2022-10-29T04:53:04.825Z,90.06
2022-10-29T04:55:38.503Z,90.11
2022-10-29T04:58:09.255Z,90.18
2022-10-29T05:00:37.854Z,90.24
2022-10-29T05:03:07.909Z,90.17
2022-10-29T05:05:41.472Z,90.29
2022-10-29T05:08:26.047Z,90.29
2022-10-29T05:11:02.322Z,90.34
2022-10-29T05:13:30.867Z,90.28
2022-10-29T05:16:00.666Z,90.18
2022-10-29T05:18:30.280Z,90.00
2022-10-29T05:21:00.274Z,90.24
2022-10-29T05:23:32.201Z,90.21
2022-10-29T05:26:06.319Z,90.28
2022-10-29T05:28:34.781Z,90.39
2022-10-29T05:31:07.065Z,90.38
2022-10-29T05:33:37.126Z,90.59
2022-10-29T05:36:15.507Z,90.77
2022-10-29T05:38:44.547Z,91.04
2022-10-29T05:41:14.479Z,91.11
2022-10-29T05:43:46.540Z,91.26
2022-10-29T05:46:14.536Z,91.24
2022-10-29T05:48:47.150Z,91.52
2022-10-29T05:51:16.120Z,91.64
2022-10-29T05:53:48.945Z,91.78
2022-10-29T05:56:20.947Z,91.91
2022-10-29T05:58:49.943Z,92.00
2022-10-29T06:01:22.757Z,92.10
2022-10-29T06:06:25.079Z,92.24
2022-10-29T06:08:53.489Z,92.41
2022-10-29T06:11:25.382Z,92.46
2022-10-29T06:14:07.255Z,92.65
2022-10-29T06:16:35.378Z,92.81
2022-10-29T06:19:06.239Z,92.78
2022-10-29T06:21:34.716Z,92.81
2022-10-29T06:24:03.511Z,92.78
2022-10-29T06:26:36.342Z,92.71
2022-10-29T06:29:07.081Z,92.66
2022-10-29T06:31:39.050Z,92.51
2022-10-29T06:34:08.559Z,92.37
2022-10-29T06:36:37.748Z,92.19
2022-10-29T06:39:10.586Z,92.02
2022-10-29T06:41:52.603Z,91.82
2022-10-29T06:44:29.714Z,91.67
2022-10-29T06:46:58.880Z,91.47
2022-10-29T06:49:28.472Z,91.22
2022-10-29T06:51:56.539Z,90.77
2022-10-29T06:54:26.860Z,90.21
2022-10-29T06:56:58.081Z,89.63
2022-10-29T06:59:27.343Z,89.14
2022-10-29T07:01:55.586Z,88.50
2022-10-29T07:04:26.073Z,87.94
2022-10-29T07:06:54.136Z,87.44
2022-10-29T07:09:22.561Z,87.00
2022-10-29T07:11:51.036Z,86.74
2022-10-29T07:14:22.707Z,86.33
2022-10-29T07:16:50.715Z,86.02
2022-10-29T07:19:19.363Z,85.85
2022-10-29T07:21:47.433Z,85.60
2022-10-29T07:24:25.530Z,85.42
2022-10-29T07:26:57.252Z,84.96
2022-10-29T07:29:37.627Z,84.63
2022-10-29T07:32:08.112Z,84.21
2022-10-29T07:34:36.308Z,83.96
2022-10-29T07:37:04.323Z,83.67
2022-10-29T07:39:33.913Z,83.30
2022-10-29T07:42:04.983Z,83.11
2022-10-29T07:44:37.714Z,82.31
2022-10-29T07:47:07.059Z,81.97
2022-10-29T07:49:35.139Z,81.71
2022-10-29T07:52:03.713Z,81.60
2022-10-29T07:54:33.144Z,80.98
2022-10-29T07:57:01.845Z,80.63
2022-10-29T07:59:32.719Z,80.09
2022-10-29T08:02:03.429Z,79.50
2022-10-29T08:04:31.895Z,78.92
2022-10-29T08:07:01.519Z,78.29
2022-10-29T08:09:30.129Z,77.93
2022-10-29T08:12:02.018Z,77.40
2022-10-29T08:14:31.225Z,77.23
2022-10-29T08:17:00.974Z,76.96
2022-10-29T08:19:30.638Z,76.88
2022-10-29T08:22:01.116Z,76.46
2022-10-29T08:24:31.598Z,75.63
2022-10-29T08:27:00.083Z,75.04
2022-10-29T08:29:31.045Z,74.02
2022-10-29T08:32:00.430Z,73.19
2022-10-29T08:34:31.743Z,72.83
2022-10-29T08:37:00.401Z,72.21
2022-10-29T08:39:28.737Z,71.70
2022-10-29T08:42:03.299Z,71.75
2022-10-29T08:45:00.276Z,71.56
2022-10-29T08:47:30.626Z,70.58
2022-10-29T08:50:08.070Z,69.91
2022-10-29T08:52:48.194Z,69.78
2022-10-29T08:55:30.953Z,69.94
2022-10-29T08:58:00.927Z,70.27
2022-10-29T09:00:35.886Z,70.34
2022-10-29T09:03:04.392Z,69.97
2022-10-29T09:05:42.275Z,69.41
2022-10-29T09:08:25.214Z,69.54
2022-10-29T09:10:55.581Z,69.63
2022-10-29T09:13:33.072Z,68.96
2022-10-29T09:16:18.321Z,68.64
2022-10-29T09:18:56.763Z,69.31
2022-10-29T09:21:33.076Z,68.13
2022-10-29T09:24:13.084Z,67.67
2022-10-29T09:26:50.024Z,67.48
2022-10-29T09:29:29.711Z,67.10
2022-10-29T09:32:01.630Z,67.70
2022-10-29T09:34:35.607Z,68.53
2022-10-29T09:37:16.894Z,68.45
2022-10-29T09:39:51.015Z,69.64
2022-10-29T09:42:24.650Z,69.83
2022-10-29T09:44:55.963Z,69.77
2022-10-29T09:47:37.038Z,69.97
2022-10-29T09:50:12.733Z,69.25
2022-10-29T09:52:46.207Z,69.71
2022-10-29T09:55:20.624Z,70.04
2022-10-29T09:57:50.615Z,69.97
2022-10-29T10:00:23.708Z,70.48
2022-10-29T10:02:57.804Z,70.64
2022-10-29T10:05:30.965Z,70.76
2022-10-29T10:08:08.863Z,71.24
2022-10-29T10:10:40.755Z,70.49
2022-10-29T10:13:17.230Z,69.83
2022-10-29T10:15:56.938Z,69.76
2022-10-29T10:18:32.241Z,69.67
2022-10-29T10:21:06.919Z,70.10
2022-10-29T10:23:43.762Z,70.23
2022-10-29T10:26:31.831Z,69.74
2022-10-29T10:29:10.525Z,69.33
2022-10-29T10:31:38.856Z,68.35
2022-10-29T10:34:16.685Z,67.83
2022-10-29T10:36:47.438Z,67.90
2022-10-29T10:39:23.012Z,67.19
2022-10-29T10:41:52.376Z,66.06
2022-10-29T10:44:27.273Z,66.68
2022-10-29T10:46:59.875Z,65.80
2022-10-29T10:49:33.253Z,65.96
2022-10-29T10:52:06.394Z,65.84
2022-10-29T10:54:41.948Z,65.59
2022-10-29T10:57:22.760Z,65.91
2022-10-29T11:00:00.505Z,64.77
2022-10-29T11:02:39.575Z,65.06
2022-10-29T11:05:18.615Z,65.39
2022-10-29T11:07:56.611Z,65.71
2022-10-29T11:10:33.464Z,66.01
2022-10-29T11:13:06.329Z,66.21
2022-10-29T11:15:42.755Z,65.96
2022-10-29T11:20:55.552Z,65.61
2022-10-29T11:23:40.898Z,65.71
2022-10-29T11:26:14.879Z,65.03
2022-10-29T11:28:48.132Z,65.70
2022-10-29T11:31:26.876Z,66.19
2022-10-29T11:34:00.142Z,66.14
2022-10-29T11:36:31.481Z,66.11
2022-10-29T11:39:03.493Z,65.99
2022-10-29T11:41:37.317Z,66.25
2022-10-29T11:44:06.952Z,66.63
2022-10-29T11:46:47.730Z,66.58
2022-10-29T11:49:28.582Z,67.31
2022-10-29T11:52:05.977Z,66.90
2022-10-29T11:54:48.379Z,67.17
2022-10-29T11:57:20.819Z,67.47
2022-10-29T12:00:12.262Z,67.22
2022-10-29T12:03:01.487Z,65.75
2022-10-29T12:05:33.386Z,65.47
2022-10-29T12:08:11.916Z,65.71
2022-10-29T12:10:47.125Z,65.37
2022-10-29T12:13:23.909Z,64.39
2022-10-29T12:16:06.035Z,64.14
2022-10-29T12:18:45.177Z,64.60
2022-10-29T12:21:19.808Z,64.29
2022-10-29T12:23:54.948Z,65.18
2022-10-29T12:26:27.752Z,65.96
2022-10-29T12:29:05.426Z,65.98
2022-10-29T12:31:49.689Z,66.10
2022-10-29T12:34:25.211Z,66.50
2022-10-29T12:37:03.518Z,66.51
2022-10-29T12:39:38.728Z,66.54
2022-10-29T12:42:10.954Z,66.49
2022-10-29T12:44:48.323Z,66.95
2022-10-29T12:47:19.505Z,67.41
2022-10-29T12:49:55.356Z,67.75
2022-10-29T12:55:26.253Z,67.96
2022-10-29T12:57:56.371Z,67.43
2022-10-29T13:00:48.644Z,67.80
2022-10-29T13:04:00.317Z,67.98
2022-10-29T13:06:46.973Z,67.80
2022-10-29T13:09:20.388Z,68.15
2022-10-29T13:11:50.373Z,68.47
2022-10-29T13:14:24.612Z,68.93
2022-10-29T13:16:54.805Z,68.67
2022-10-29T13:19:32.917Z,69.03
2022-10-29T13:22:19.501Z,69.17
2022-10-29T13:25:23.239Z,69.23
2022-10-29T13:27:51.242Z,68.97
2022-10-29T13:30:23.891Z,69.30
2022-10-29T13:32:53.804Z,69.45
2022-10-29T13:35:52.693Z,69.81
2022-10-29T13:38:21.003Z,70.10
2022-10-29T13:41:15.443Z,70.26
2022-10-29T13:43:53.758Z,70.32
2022-10-29T13:46:45.291Z,70.57
2022-10-29T13:49:19.933Z,70.86
2022-10-29T13:51:55.952Z,70.87
2022-10-29T13:55:05.143Z,71.10
2022-10-29T13:57:38.531Z,71.36
2022-10-29T14:00:10.792Z,71.41
2022-10-29T14:02:51.620Z,71.51
2022-10-29T14:05:26.004Z,71.74
2022-10-29T14:08:03.767Z,72.16
2022-10-29T14:10:34.623Z,72.11
2022-10-29T14:13:12.162Z,72.24
2022-10-29T14:16:00.226Z,72.41
2022-10-29T14:18:32.923Z,72.73
2022-10-29T14:21:06.302Z,72.87
2022-10-29T14:23:34.504Z,73.32
2022-10-29T14:26:08.460Z,73.63
2022-10-29T14:28:36.608Z,74.04
2022-10-29T14:31:06.506Z,74.33
2022-10-29T14:33:37.069Z,74.54
2022-10-29T14:36:23.360Z,74.79
2022-10-29T14:38:53.270Z,75.23
2022-10-29T14:41:23.953Z,75.52
2022-10-29T14:44:00.200Z,75.55
2022-10-29T14:46:30.357Z,75.99
2022-10-29T14:49:05.511Z,76.04
2022-10-29T14:51:39.655Z,76.08
2022-10-29T14:54:09.989Z,76.24
2022-10-29T14:56:42.161Z,76.39
2022-10-29T14:59:19.065Z,76.58
2022-10-29T15:01:51.629Z,76.52
2022-10-29T15:04:22.524Z,76.49
2022-10-29T15:06:57.655Z,76.81
2022-10-29T15:09:28.888Z,77.03
2022-10-29T15:12:07.959Z,77.19
2022-10-29T15:14:38.868Z,77.25
2022-10-29T15:17:10.538Z,77.25
2022-10-29T15:19:43.752Z,77.39
2022-10-29T15:22:20.578Z,77.53
2022-10-29T15:24:50.886Z,77.70
2022-10-29T15:27:19.409Z,77.84
2022-10-29T15:29:49.761Z,78.08
2022-10-29T15:32:19.946Z,78.30
2022-10-29T15:34:50.249Z,78.39
2022-10-29T15:37:42.869Z,78.75
2022-10-29T15:40:12.219Z,78.88
2022-10-29T15:42:42.235Z,79.08
2022-10-29T15:45:24.001Z,79.20
2022-10-29T15:47:56.796Z,79.44
2022-10-29T15:53:17.451Z,79.84
2022-10-29T15:55:46.975Z,80.00
2022-10-29T15:58:20.734Z,80.38
2022-10-29T16:00:51.501Z,80.57
2022-10-29T16:03:21.091Z,80.75
2022-10-29T16:05:52.472Z,80.87
2022-10-29T16:08:33.334Z,81.07
2022-10-29T16:11:10.232Z,81.37
2022-10-29T16:13:38.928Z,81.52
2022-10-29T16:16:13.685Z,81.73
2022-10-29T16:18:41.710Z,81.94
2022-10-29T16:21:17.666Z,82.19
2022-10-29T16:23:47.378Z,82.46
2022-10-29T16:26:19.877Z,82.66
2022-10-29T16:28:48.061Z,82.87
2022-10-29T16:31:27.409Z,83.05
2022-10-29T16:33:58.160Z,83.11
2022-10-29T16:36:28.931Z,83.21
2022-10-29T16:38:59.887Z,83.23
2022-10-29T16:41:28.928Z,83.28
2022-10-29T16:43:58.801Z,83.37
2022-10-29T16:46:28.316Z,83.44
2022-10-29T16:48:59.881Z,83.57
2022-10-29T16:51:29.205Z,83.65
2022-10-29T16:54:14.870Z,83.71
2022-10-29T16:56:48.003Z,83.72
2022-10-29T16:59:18.274Z,83.79
2022-10-29T17:01:51.455Z,83.87
2022-10-29T17:04:20.606Z,84.02
2022-10-29T17:06:49.113Z,84.06
2022-10-29T17:09:24.529Z,84.16
2022-10-29T17:12:06.267Z,84.21
2022-10-29T17:14:34.884Z,84.31
2022-10-29T17:17:05.991Z,84.42
2022-10-29T17:19:34.288Z,84.52
2022-10-29T17:22:08.325Z,84.54
2022-10-29T17:24:38.948Z,84.62
2022-10-29T17:27:09.487Z,84.73
2022-10-29T17:29:41.067Z,84.87
2022-10-29T17:32:11.974Z,84.98
2022-10-29T17:34:44.556Z,85.11
2022-10-29T17:37:14.737Z,85.19
2022-10-29T17:39:46.448Z,85.33
2022-10-29T17:42:14.975Z,85.50
2022-10-29T17:44:43.531Z,85.62
2022-10-29T17:47:11.670Z,85.87
2022-10-29T17:49:43.015Z,86.02
2022-10-29T17:52:16.518Z,86.14
2022-10-29T17:54:46.616Z,86.29
2022-10-29T17:57:16.852Z,86.37
2022-10-29T17:59:47.086Z,86.43
2022-10-29T18:02:20.523Z,86.52
2022-10-29T18:04:58.618Z,86.59
2022-10-29T18:07:28.288Z,86.68
2022-10-29T18:10:04.303Z,86.71
2022-10-29T18:12:36.358Z,86.88
2022-10-29T18:15:06.448Z,87.03
2022-10-29T18:17:35.163Z,87.06
2022-10-29T18:20:04.782Z,87.19
2022-10-29T18:22:35.802Z,87.34
2022-10-29T18:25:06.132Z,87.50
2022-10-29T18:27:35.163Z,87.65
2022-10-29T18:30:06.236Z,87.81
2022-10-29T18:32:34.612Z,87.84
2022-10-29T18:35:06.554Z,88.07
2022-10-29T18:37:36.758Z,88.21
2022-10-29T18:40:12.834Z,88.37
2022-10-29T18:42:43.973Z,88.60
2022-10-29T18:45:13.298Z,88.77
2022-10-29T18:47:42.900Z,88.94
2022-10-29T18:50:12.720Z,89.17
2022-10-29T18:52:41.663Z,89.27
2022-10-29T18:55:12.316Z,89.34
2022-10-29T18:57:42.580Z,89.39
2022-10-29T19:00:13.671Z,89.41
2022-10-29T19:02:47.125Z,89.49
2022-10-29T19:05:20.175Z,89.45
2022-10-29T19:07:48.171Z,89.45
2022-10-29T19:10:19.327Z,89.49
2022-10-29T19:12:51.614Z,89.52
2022-10-29T19:15:26.547Z,89.56
2022-10-29T19:17:55.515Z,89.68
2022-10-29T19:20:25.273Z,89.73
2022-10-29T19:22:55.428Z,89.89
2022-10-29T19:25:28.643Z,89.92
2022-10-29T19:27:56.990Z,89.99
2022-10-29T19:30:25.555Z,90.16
2022-10-29T19:33:09.257Z,90.20
2022-10-29T19:35:37.737Z,90.31
2022-10-29T19:38:07.471Z,90.44
2022-10-29T19:40:37.616Z,90.54
2022-10-29T19:43:10.123Z,90.67
2022-10-29T19:45:42.591Z,90.77
2022-10-29T19:48:12.189Z,90.79
2022-10-29T19:50:41.800Z,90.93
2022-10-29T19:53:13.352Z,90.99
2022-10-29T19:55:46.856Z,91.14
2022-10-29T19:58:20.711Z,91.25
2022-10-29T20:00:50.115Z,91.32
2022-10-29T20:03:19.412Z,91.36
2022-10-29T20:05:48.143Z,91.42
2022-10-29T20:08:17.449Z,91.35
2022-10-29T20:10:55.610Z,91.38
2022-10-29T20:13:26.596Z,91.44
2022-10-29T20:15:55.057Z,91.48
2022-10-29T20:18:25.083Z,91.48
2022-10-29T20:20:59.684Z,91.60
2022-10-29T20:23:29.080Z,91.70
2022-10-29T20:26:12.149Z,91.77
2022-10-29T20:28:41.449Z,91.89
2022-10-29T20:31:34.722Z,91.96
2022-10-29T20:34:06.155Z,92.13
2022-10-29T20:36:34.944Z,92.26
2022-10-29T20:39:03.662Z,92.45
2022-10-29T20:41:35.398Z,92.49
2022-10-29T20:44:03.732Z,92.53
2022-10-29T20:46:40.954Z,92.59
2022-10-29T20:49:12.078Z,92.74
2022-10-29T20:51:40.067Z,92.89
2022-10-29T20:54:09.528Z,93.03
2022-10-29T20:56:40.243Z,93.21
2022-10-29T20:59:10.265Z,93.30
2022-10-29T21:01:38.637Z,93.47
2022-10-29T21:04:07.076Z,93.51
2022-10-29T21:06:35.599Z,93.56
2022-10-29T21:09:03.974Z,93.58
2022-10-29T21:11:32.843Z,93.64
2022-10-29T21:14:02.970Z,93.66
2022-10-29T21:16:31.339Z,93.71
2022-10-29T21:19:01.107Z,93.69
2022-10-29T21:21:29.979Z,93.76
2022-10-29T21:24:00.871Z,93.84
2022-10-29T21:26:29.638Z,93.84
2022-10-29T21:28:58.449Z,93.89
2022-10-29T21:31:36.027Z,93.96
2022-10-29T21:34:07.595Z,93.96
2022-10-29T21:36:37.012Z,93.99
2022-10-29T21:39:05.647Z,94.01
2022-10-29T21:41:34.228Z,94.09
2022-10-29T21:44:04.498Z,94.26
2022-10-29T21:46:39.266Z,94.34
2022-10-29T21:49:08.620Z,94.34
2022-10-29T21:51:41.315Z,94.37
2022-10-29T21:54:10.831Z,94.44
2022-10-29T21:56:40.363Z,94.40
2022-10-29T21:59:09.868Z,94.37
2022-10-29T22:01:43.787Z,94.38
2022-10-29T22:04:14.057Z,94.45
2022-10-29T22:06:45.794Z,94.50
2022-10-29T22:09:14.890Z,94.51
2022-10-29T22:11:44.727Z,94.53
2022-10-29T22:14:13.870Z,94.53
2022-10-29T22:16:43.468Z,94.47
2022-10-29T22:19:12.363Z,94.50
2022-10-29T22:21:41.950Z,94.56
2022-10-29T22:24:10.746Z,94.63
2022-10-29T22:26:38.907Z,94.63
2022-10-29T22:29:11.603Z,94.61
2022-10-29T22:31:40.704Z,94.59
2022-10-29T22:34:10.528Z,94.61
2022-10-29T22:36:41.787Z,94.63
2022-10-29T22:39:10.206Z,94.65
2022-10-29T22:41:41.133Z,94.64
2022-10-29T22:44:11.426Z,94.63
2022-10-29T22:46:40.778Z,94.59
2022-10-29T22:49:12.359Z,94.60
2022-10-29T22:51:40.801Z,94.54
2022-10-29T22:54:10.417Z,94.48
2022-10-29T22:56:43.150Z,94.51
2022-10-29T22:59:13.253Z,94.55
2022-10-29T23:01:45.328Z,94.55
2022-10-29T23:04:19.006Z,94.57
2022-10-29T23:06:49.556Z,94.55
2022-10-29T23:09:18.298Z,94.55
2022-10-29T23:11:46.889Z,94.61
2022-10-29T23:14:15.591Z,94.70
2022-10-29T23:16:44.006Z,94.72
2022-10-29T23:19:17.104Z,94.75
2022-10-29T23:21:49.137Z,94.69
2022-10-29T23:24:17.822Z,94.75
2022-10-29T23:26:47.610Z,94.77
2022-10-29T23:29:18.318Z,94.78
2022-10-29T23:31:48.049Z,94.75
2022-10-29T23:34:25.611Z,94.86
2022-10-29T23:36:55.916Z,94.93
2022-10-29T23:39:24.508Z,95.02
2022-10-29T23:41:53.171Z,95.05
2022-10-29T23:44:24.756Z,95.09
2022-10-29T23:46:52.918Z,95.12
2022-10-29T23:49:22.913Z,95.14
2022-10-29T23:51:52.403Z,95.13
2022-10-29T23:54:21.424Z,95.16
2022-10-29T23:56:53.255Z,95.21
2022-10-29T23:59:27.298Z,95.21
